createdAt,value
2017-10-18T00:00:32.275Z,0.00
2017-10-18T00:01:32.266Z,0.00
2017-10-18T00:02:32.258Z,0.00
2017-10-18T00:03:32.249Z,0.00
2017-10-18T00:04:32.242Z,0.00
2017-10-18T00:05:32.233Z,0.00
2017-10-18T00:06:32.227Z,0.00
2017-10-18T00:07:32.218Z,0.00
2017-10-18T00:08:32.209Z,0.00
2017-10-18T00:09:32.200Z,0.00
2017-10-18T00:10:32.194Z,0.00
2017-10-18T00:11:32.184Z,0.00
2017-10-18T00:12:32.175Z,0.00
2017-10-18T00:13:32.169Z,0.00
2017-10-18T00:14:32.163Z,0.00
2017-10-18T00:15:32.154Z,0.00
2017-10-18T00:16:32.144Z,0.00
2017-10-18T00:17:32.136Z,0.00
2017-10-18T00:18:32.127Z,0.00
2017-10-18T00:19:32.120Z,0.00
2017-10-18T00:20:32.118Z,0.00
2017-10-18T00:21:32.103Z,0.00
2017-10-18T00:22:32.094Z,0.00
2017-10-18T00:23:32.088Z,0.00
2017-10-18T00:24:32.891Z,0.00
2017-10-18T00:25:32.073Z,0.00
2017-10-18T00:26:32.061Z,0.00
2017-10-18T00:27:32.055Z,0.00
2017-10-18T00:28:32.046Z,0.00
2017-10-18T00:29:32.038Z,0.00
2017-10-18T00:30:32.029Z,0.00
2017-10-18T00:31:32.023Z,0.00
2017-10-18T00:32:32.017Z,0.00
2017-10-18T00:33:32.010Z,0.00
2017-10-18T00:34:31.999Z,0.00
2017-10-18T00:35:31.989Z,0.00
2017-10-18T00:36:31.979Z,0.00
2017-10-18T00:37:31.972Z,0.00
2017-10-18T00:38:31.964Z,0.00
2017-10-18T00:39:31.955Z,0.00
2017-10-18T00:40:31.951Z,0.00
2017-10-18T00:41:31.942Z,0.00
2017-10-18T00:42:31.931Z,0.00
2017-10-18T00:43:31.923Z,0.00
2017-10-18T00:44:31.913Z,0.00
2017-10-18T00:45:31.912Z,0.00
2017-10-18T00:46:31.901Z,0.00
2017-10-18T00:47:31.896Z,0.00
2017-10-18T00:48:31.882Z,0.00
2017-10-18T00:49:31.884Z,0.00
2017-10-18T00:50:31.865Z,0.00
2017-10-18T00:51:31.857Z,0.00
2017-10-18T00:52:31.849Z,0.00
2017-10-18T00:53:31.841Z,0.00
2017-10-18T00:54:31.835Z,0.00
2017-10-18T00:55:31.823Z,0.00
2017-10-18T00:56:31.818Z,0.00
2017-10-18T00:57:31.807Z,0.00
2017-10-18T00:58:31.798Z,0.00
2017-10-18T00:59:31.790Z,0.00
2017-10-18T01:00:31.787Z,0.00
2017-10-18T01:01:31.776Z,0.00
2017-10-18T01:02:31.768Z,0.00
2017-10-18T01:03:31.757Z,0.00
2017-10-18T01:04:31.754Z,0.00
2017-10-18T01:05:31.742Z,0.00
2017-10-18T01:06:31.732Z,0.00
2017-10-18T01:07:31.725Z,0.00
2017-10-18T01:08:31.718Z,0.00
2017-10-18T01:09:31.708Z,0.00
2017-10-18T01:10:31.700Z,0.00
2017-10-18T01:11:31.694Z,0.00
2017-10-18T01:12:31.681Z,0.00
2017-10-18T01:13:31.679Z,0.00
2017-10-18T01:14:31.664Z,0.00
2017-10-18T01:15:31.658Z,0.00
2017-10-18T01:16:31.650Z,0.00
2017-10-18T01:17:31.642Z,0.00
2017-10-18T01:18:31.632Z,0.00
2017-10-18T01:19:31.624Z,0.00
2017-10-18T01:20:31.621Z,0.00
2017-10-18T01:21:31.608Z,0.00
2017-10-18T01:22:31.601Z,0.00
2017-10-18T01:23:31.591Z,0.00
2017-10-18T01:24:31.583Z,0.00
2017-10-18T01:25:31.574Z,0.00
2017-10-18T01:26:31.566Z,0.00
2017-10-18T01:27:31.560Z,0.00
2017-10-18T01:28:31.549Z,0.00
2017-10-18T01:29:31.540Z,0.00
2017-10-18T01:30:31.531Z,0.00
2017-10-18T01:31:31.524Z,0.00
2017-10-18T01:32:31.519Z,0.00
2017-10-18T01:33:31.507Z,0.00
2017-10-18T01:34:31.503Z,0.00
2017-10-18T01:35:31.496Z,0.00
2017-10-18T01:36:31.488Z,0.00
2017-10-18T01:37:32.408Z,0.00
2017-10-18T01:38:31.469Z,0.00
2017-10-18T01:39:31.463Z,0.00
2017-10-18T01:40:31.448Z,0.00
2017-10-18T01:41:31.447Z,0.00
2017-10-18T01:42:31.430Z,0.00
2017-10-18T01:43:31.424Z,0.00
2017-10-18T01:44:31.421Z,0.00
2017-10-18T01:45:31.408Z,0.00
2017-10-18T01:46:31.398Z,0.00
2017-10-18T01:47:31.392Z,0.00
2017-10-18T01:48:31.382Z,0.00
2017-10-18T01:49:31.374Z,0.00
2017-10-18T01:50:31.364Z,0.00
2017-10-18T01:51:31.362Z,0.00
2017-10-18T01:52:31.349Z,0.00
2017-10-18T01:53:31.342Z,0.00
2017-10-18T01:54:31.342Z,0.00
2017-10-18T01:55:31.322Z,0.00
2017-10-18T01:56:31.315Z,0.00
2017-10-18T01:57:31.308Z,0.00
2017-10-18T01:58:31.297Z,0.00
2017-10-18T01:59:31.290Z,0.00
2017-10-18T02:00:31.279Z,0.00
2017-10-18T02:01:31.273Z,0.00
2017-10-18T02:02:31.264Z,0.00
2017-10-18T02:03:31.256Z,0.00
2017-10-18T02:04:31.250Z,0.00
2017-10-18T02:05:31.241Z,0.00
2017-10-18T02:06:31.233Z,0.00
2017-10-18T02:07:31.222Z,0.00
2017-10-18T02:08:31.917Z,0.00
2017-10-18T02:09:31.213Z,0.00
2017-10-18T02:10:31.197Z,0.00
2017-10-18T02:11:31.188Z,0.00
2017-10-18T02:12:31.180Z,0.00
2017-10-18T02:13:31.173Z,0.00
2017-10-18T02:14:31.163Z,0.00
2017-10-18T02:15:31.158Z,0.00
2017-10-18T02:16:31.148Z,0.00
2017-10-18T02:17:31.141Z,0.00
2017-10-18T02:18:31.130Z,0.00
2017-10-18T02:19:31.124Z,0.00
2017-10-18T02:20:32.919Z,0.00
2017-10-18T02:21:31.106Z,0.00
2017-10-18T02:22:31.098Z,0.00
2017-10-18T02:23:31.093Z,0.00
2017-10-18T02:24:31.082Z,0.00
2017-10-18T02:25:31.075Z,0.00
2017-10-18T02:26:31.066Z,0.00
2017-10-18T02:27:31.058Z,0.00
2017-10-18T02:28:31.048Z,0.00
2017-10-18T02:29:31.041Z,0.00
2017-10-18T02:30:31.030Z,0.00
2017-10-18T02:31:31.025Z,0.00
2017-10-18T02:32:31.019Z,0.00
2017-10-18T02:33:31.012Z,0.00
2017-10-18T02:34:30.999Z,0.00
2017-10-18T02:35:30.993Z,0.00
2017-10-18T02:36:30.982Z,0.00
2017-10-18T02:37:30.974Z,0.00
2017-10-18T02:38:30.964Z,0.00
2017-10-18T02:39:30.959Z,0.00
2017-10-18T02:40:30.951Z,0.00
2017-10-18T02:41:30.945Z,0.00
2017-10-18T02:42:30.937Z,0.00
2017-10-18T02:43:30.924Z,0.00
2017-10-18T02:44:31.431Z,0.00
2017-10-18T02:45:30.910Z,0.00
2017-10-18T02:46:30.902Z,0.00
2017-10-18T02:47:30.891Z,0.00
2017-10-18T02:48:30.883Z,0.00
2017-10-18T02:49:30.877Z,0.00
2017-10-18T02:50:30.867Z,0.00
2017-10-18T02:51:30.864Z,0.00
2017-10-18T02:52:30.856Z,0.00
2017-10-18T02:53:30.844Z,0.00
2017-10-18T02:54:30.833Z,0.00
2017-10-18T02:55:30.832Z,0.00
2017-10-18T02:56:30.817Z,0.00
2017-10-18T02:57:30.810Z,0.00
2017-10-18T02:58:30.801Z,0.00
2017-10-18T02:59:30.792Z,0.00
2017-10-18T03:00:30.819Z,0.00
2017-10-18T03:01:30.778Z,0.00
2017-10-18T03:02:30.770Z,0.00
2017-10-18T03:03:30.759Z,0.00
2017-10-18T03:04:30.753Z,0.00
2017-10-18T03:05:30.745Z,0.00
2017-10-18T03:06:30.738Z,0.00
2017-10-18T03:07:30.727Z,0.00
2017-10-18T03:08:30.722Z,0.00
2017-10-18T03:09:30.711Z,0.00
2017-10-18T03:10:30.702Z,0.00
2017-10-18T03:11:30.695Z,0.00
2017-10-18T03:12:30.686Z,0.00
2017-10-18T03:13:30.683Z,0.00
2017-10-18T03:14:30.670Z,0.00
2017-10-18T03:15:30.665Z,0.00
2017-10-18T03:16:30.655Z,0.00
2017-10-18T03:17:30.646Z,0.00
2017-10-18T03:18:30.636Z,0.00
2017-10-18T03:19:30.628Z,0.00
2017-10-18T03:20:30.620Z,0.00
2017-10-18T03:21:30.618Z,0.00
2017-10-18T03:22:30.604Z,0.00
2017-10-18T03:23:30.595Z,0.00
2017-10-18T03:24:30.589Z,0.00
2017-10-18T03:25:30.587Z,0.00
2017-10-18T03:26:30.573Z,0.00
2017-10-18T03:27:30.562Z,0.00
2017-10-18T03:28:30.555Z,0.00
2017-10-18T03:29:30.547Z,0.00
2017-10-18T03:30:30.541Z,0.00
2017-10-18T03:31:30.534Z,0.00
2017-10-18T03:32:30.522Z,0.00
2017-10-18T03:33:30.525Z,0.00
2017-10-18T03:34:30.507Z,0.00
2017-10-18T03:35:30.498Z,0.00
2017-10-18T03:36:30.490Z,0.00
2017-10-18T03:37:30.482Z,0.00
2017-10-18T03:38:30.472Z,0.00
2017-10-18T03:39:30.468Z,0.00
2017-10-18T03:40:30.458Z,0.00
2017-10-18T03:41:30.451Z,0.00
2017-10-18T03:42:30.447Z,0.00
2017-10-18T03:43:30.431Z,0.00
2017-10-18T03:44:30.425Z,0.00
2017-10-18T03:45:30.415Z,0.00
2017-10-18T03:46:30.407Z,0.00
2017-10-18T03:47:30.403Z,0.00
2017-10-18T03:48:30.391Z,0.00
2017-10-18T03:49:30.387Z,0.00
2017-10-18T03:50:30.375Z,0.00
2017-10-18T03:51:30.369Z,0.00
2017-10-18T03:52:30.361Z,0.00
2017-10-18T03:53:30.355Z,0.00
2017-10-18T03:54:30.347Z,0.00
2017-10-18T03:55:30.338Z,0.00
2017-10-18T03:56:30.327Z,0.00
2017-10-18T03:57:30.318Z,0.00
2017-10-18T03:58:30.945Z,0.00
2017-10-18T03:59:30.306Z,0.00
2017-10-18T04:00:30.293Z,0.00
2017-10-18T04:01:30.285Z,0.00
2017-10-18T04:02:30.278Z,0.00
2017-10-18T04:03:30.269Z,0.00
2017-10-18T04:04:30.261Z,0.00
2017-10-18T04:05:30.256Z,0.00
2017-10-18T04:06:30.245Z,0.00
2017-10-18T04:07:30.949Z,0.00
2017-10-18T04:08:30.229Z,0.00
2017-10-18T04:09:30.955Z,0.00
2017-10-18T04:10:30.213Z,0.00
2017-10-18T04:11:30.206Z,0.00
2017-10-18T04:12:30.195Z,0.00
2017-10-18T04:13:30.190Z,0.00
2017-10-18T04:14:30.185Z,0.00
2017-10-18T04:15:30.168Z,0.00
2017-10-18T04:16:30.163Z,0.00
2017-10-18T04:17:30.156Z,0.00
2017-10-18T04:18:30.144Z,0.00
2017-10-18T04:19:30.135Z,0.00
2017-10-18T04:20:30.130Z,0.00
2017-10-18T04:21:30.120Z,0.00
2017-10-18T04:22:30.115Z,0.00
2017-10-18T04:23:30.109Z,0.00
2017-10-18T04:24:30.097Z,0.00
2017-10-18T04:25:30.088Z,0.00
2017-10-18T04:26:30.085Z,0.00
2017-10-18T04:27:30.071Z,0.00
2017-10-18T04:28:30.063Z,0.00
2017-10-18T04:29:30.055Z,0.00
2017-10-18T04:30:30.049Z,0.00
2017-10-18T04:31:30.040Z,0.00
2017-10-18T04:32:30.034Z,0.00
2017-10-18T04:33:30.024Z,0.00
2017-10-18T04:34:30.020Z,0.00
2017-10-18T04:35:30.005Z,0.00
2017-10-18T04:36:32.955Z,0.00
2017-10-18T04:37:29.994Z,0.00
2017-10-18T04:38:29.982Z,0.00
2017-10-18T04:39:29.974Z,0.00
2017-10-18T04:40:29.990Z,0.00
2017-10-18T04:41:29.959Z,0.00
2017-10-18T04:42:29.950Z,0.00
2017-10-18T04:43:29.942Z,0.00
2017-10-18T04:44:29.934Z,0.00
2017-10-18T04:45:29.926Z,0.00
2017-10-18T04:46:29.917Z,0.00
2017-10-18T04:47:29.909Z,0.00
2017-10-18T04:48:29.901Z,0.00
2017-10-18T04:49:29.894Z,0.00
2017-10-18T04:50:29.888Z,0.00
2017-10-18T04:51:29.899Z,0.00
2017-10-18T04:52:29.872Z,0.00
2017-10-18T04:53:29.862Z,0.00
2017-10-18T04:54:29.853Z,0.00
2017-10-18T04:55:29.844Z,0.00
2017-10-18T04:56:29.837Z,0.00
2017-10-18T04:57:29.834Z,0.00
2017-10-18T04:58:29.819Z,0.00
2017-10-18T04:59:29.812Z,0.00
2017-10-18T05:00:29.805Z,0.00
2017-10-18T05:01:29.798Z,0.00
2017-10-18T05:02:29.789Z,0.00
2017-10-18T05:03:29.782Z,0.00
2017-10-18T05:04:29.774Z,0.00
2017-10-18T05:05:29.766Z,0.00
2017-10-18T05:06:29.757Z,0.00
2017-10-18T05:07:29.750Z,0.00
2017-10-18T05:08:29.742Z,0.00
2017-10-18T05:09:29.736Z,0.00
2017-10-18T05:10:29.725Z,0.00
2017-10-18T05:11:29.718Z,0.00
2017-10-18T05:12:30.470Z,0.00
2017-10-18T05:13:29.700Z,0.00
2017-10-18T05:14:30.461Z,0.00
2017-10-18T05:15:29.684Z,0.00
2017-10-18T05:16:29.676Z,0.00
2017-10-18T05:17:29.668Z,0.00
2017-10-18T05:18:29.660Z,0.00
2017-10-18T05:19:29.653Z,0.00
2017-10-18T05:20:29.643Z,0.00
2017-10-18T05:21:29.638Z,0.00
2017-10-18T05:22:29.627Z,0.00
2017-10-18T05:23:29.619Z,0.00
2017-10-18T05:24:29.609Z,0.00
2017-10-18T05:25:29.605Z,0.00
2017-10-18T05:26:29.596Z,0.00
2017-10-18T05:27:29.589Z,0.00
2017-10-18T05:28:29.578Z,0.00
2017-10-18T05:29:29.572Z,0.00
2017-10-18T05:30:29.563Z,4.00
2017-10-18T05:31:29.554Z,4.00
2017-10-18T05:32:29.552Z,4.00
2017-10-18T05:33:29.543Z,0.00
2017-10-18T05:34:29.531Z,4.00
2017-10-18T05:35:29.523Z,4.00
2017-10-18T05:36:29.520Z,8.00
2017-10-18T05:37:29.506Z,8.00
2017-10-18T05:38:29.498Z,8.00
2017-10-18T05:39:29.493Z,8.00
2017-10-18T05:40:29.482Z,8.00
2017-10-18T05:41:29.475Z,12.00
2017-10-18T05:42:29.466Z,16.00
2017-10-18T05:43:29.462Z,20.00
2017-10-18T05:44:29.452Z,28.00
2017-10-18T05:45:29.445Z,28.00
2017-10-18T05:46:29.434Z,36.00
2017-10-18T05:47:29.426Z,40.00
2017-10-18T05:48:29.419Z,48.00
2017-10-18T05:49:29.410Z,56.00
2017-10-18T05:50:29.404Z,64.00
2017-10-18T05:51:29.395Z,72.00
2017-10-18T05:52:29.393Z,80.00
2017-10-18T05:53:29.379Z,96.00
2017-10-18T05:54:29.376Z,112.00
2017-10-18T05:55:29.363Z,124.00
2017-10-18T05:56:29.355Z,132.00
2017-10-18T05:57:29.347Z,152.00
2017-10-18T05:58:29.338Z,160.00
2017-10-18T05:59:29.335Z,164.00
2017-10-18T06:00:29.327Z,180.00
2017-10-18T06:01:29.320Z,188.00
2017-10-18T06:02:29.305Z,200.00
2017-10-18T06:03:29.298Z,204.00
2017-10-18T06:04:29.296Z,216.00
2017-10-18T06:05:29.285Z,244.00
2017-10-18T06:06:30.976Z,260.00
2017-10-18T06:07:29.982Z,280.00
2017-10-18T06:08:29.262Z,300.00
2017-10-18T06:09:29.251Z,332.00
2017-10-18T06:10:29.251Z,364.00
2017-10-18T06:11:29.233Z,404.00
2017-10-18T06:12:29.227Z,412.00
2017-10-18T06:13:29.217Z,464.00
2017-10-18T06:14:30.992Z,512.00
2017-10-18T06:15:45.069Z,568.00
2017-10-18T06:16:30.997Z,596.00
2017-10-18T06:17:29.202Z,648.00
2017-10-18T06:18:29.191Z,676.00
2017-10-18T06:19:29.201Z,680.00
2017-10-18T06:20:29.167Z,720.00
2017-10-18T06:21:29.158Z,776.00
2017-10-18T06:22:29.148Z,780.00
2017-10-18T06:23:29.156Z,800.00
2017-10-18T06:24:29.142Z,844.00
2017-10-18T06:25:29.126Z,908.00
2017-10-18T06:26:29.143Z,936.00
2017-10-18T06:27:29.110Z,956.00
2017-10-18T06:28:29.135Z,1048.00
2017-10-18T06:29:29.093Z,1140.00
2017-10-18T06:30:29.084Z,1208.00
2017-10-18T06:31:29.079Z,1268.00
2017-10-18T06:32:29.068Z,1372.00
2017-10-18T06:33:29.073Z,1476.00
2017-10-18T06:34:29.982Z,1588.00
2017-10-18T06:35:29.044Z,1628.00
2017-10-18T06:36:29.039Z,1712.00
2017-10-18T06:37:29.035Z,1888.00
2017-10-18T06:38:29.021Z,1948.00
2017-10-18T06:39:29.012Z,2136.00
2017-10-18T06:40:29.004Z,2172.00
2017-10-18T06:41:28.996Z,2116.00
2017-10-18T06:42:28.993Z,2164.00
2017-10-18T06:43:28.982Z,2428.00
2017-10-18T06:44:28.973Z,2372.00
2017-10-18T06:45:28.965Z,2396.00
2017-10-18T06:46:28.958Z,2544.00
2017-10-18T06:47:28.947Z,2596.00
2017-10-18T06:48:28.941Z,2668.00
2017-10-18T06:49:28.937Z,2676.00
2017-10-18T06:50:28.925Z,2788.00
2017-10-18T06:51:28.917Z,2624.00
2017-10-18T06:52:28.909Z,2732.00
2017-10-18T06:53:28.907Z,2908.00
2017-10-18T06:54:28.897Z,3152.00
2017-10-18T06:55:28.886Z,2936.00
2017-10-18T06:56:28.880Z,3052.00
2017-10-18T06:57:28.871Z,2912.00
2017-10-18T06:58:28.863Z,3220.00
2017-10-18T06:59:28.856Z,3216.00
2017-10-18T07:00:28.851Z,3252.00
2017-10-18T07:01:28.850Z,3532.00
2017-10-18T07:02:28.831Z,3720.00
2017-10-18T07:03:28.824Z,3644.00
2017-10-18T07:04:28.816Z,3872.00
2017-10-18T07:05:28.808Z,4060.00
2017-10-18T07:06:28.805Z,3944.00
2017-10-18T07:07:28.797Z,4056.00
2017-10-18T07:08:28.790Z,4528.00
2017-10-18T07:09:28.779Z,4236.00
2017-10-18T07:10:28.772Z,4052.00
2017-10-18T07:11:28.760Z,3992.00
2017-10-18T07:12:28.753Z,4232.00
2017-10-18T07:13:28.747Z,4036.00
2017-10-18T07:14:28.739Z,4692.00
2017-10-18T07:15:28.734Z,4476.00
2017-10-18T07:16:28.723Z,4888.00
2017-10-18T07:17:28.715Z,4720.00
2017-10-18T07:18:28.712Z,5196.00
2017-10-18T07:19:28.702Z,4840.00
2017-10-18T07:20:28.699Z,5688.00
2017-10-18T07:21:28.685Z,5252.00
2017-10-18T07:22:28.676Z,5596.00
2017-10-18T07:23:28.670Z,5408.00
2017-10-18T07:24:28.664Z,5612.00
2017-10-18T07:25:28.662Z,4988.00
2017-10-18T07:26:28.646Z,5160.00
2017-10-18T07:27:28.640Z,5512.00
2017-10-18T07:28:28.631Z,4932.00
2017-10-18T07:29:28.624Z,5324.00
2017-10-18T07:30:28.616Z,5844.00
2017-10-18T07:31:28.612Z,5148.00
2017-10-18T07:32:28.600Z,5868.00
2017-10-18T07:33:28.612Z,5556.00
2017-10-18T07:34:28.584Z,5440.00
2017-10-18T07:35:28.578Z,5984.00
2017-10-18T07:36:28.569Z,5592.00
2017-10-18T07:37:28.564Z,5704.00
2017-10-18T07:38:28.555Z,5516.00
2017-10-18T07:39:28.549Z,5392.00
2017-10-18T07:40:28.551Z,6116.00
2017-10-18T07:41:28.534Z,4976.00
2017-10-18T07:42:28.524Z,6452.00
2017-10-18T07:43:28.521Z,6388.00
2017-10-18T07:44:28.510Z,5948.00
2017-10-18T07:45:28.503Z,5400.00
2017-10-18T07:46:28.497Z,7044.00
2017-10-18T07:47:28.492Z,6092.00
2017-10-18T07:48:28.481Z,6480.00
2017-10-18T07:49:28.475Z,5976.00
2017-10-18T07:50:28.468Z,6360.00
2017-10-18T07:51:28.463Z,6904.00
2017-10-18T07:52:28.455Z,6940.00
2017-10-18T07:53:28.448Z,7264.00
2017-10-18T07:54:28.438Z,7112.00
2017-10-18T07:55:28.430Z,7032.00
2017-10-18T07:56:28.428Z,7088.00
2017-10-18T07:57:28.424Z,7400.00
2017-10-18T07:58:28.410Z,7992.00
2017-10-18T07:59:28.399Z,7468.00
2017-10-18T08:00:28.402Z,7428.00
2017-10-18T08:01:28.385Z,7220.00
2017-10-18T08:02:28.378Z,7512.00
2017-10-18T08:03:28.373Z,6860.00
2017-10-18T08:04:28.365Z,7380.00
2017-10-18T08:05:28.360Z,6776.00
2017-10-18T08:06:28.349Z,7064.00
2017-10-18T08:07:28.342Z,6448.00
2017-10-18T08:08:28.337Z,7500.00
2017-10-18T08:09:28.336Z,7616.00
2017-10-18T08:10:28.322Z,6808.00
2017-10-18T08:11:28.316Z,8664.00
2017-10-18T08:12:28.307Z,7140.00
2017-10-18T08:13:28.301Z,8240.00
2017-10-18T08:14:28.296Z,8760.00
2017-10-18T08:15:28.286Z,8492.00
2017-10-18T08:16:28.283Z,9828.00
2017-10-18T08:17:29.016Z,9016.00
2017-10-18T08:18:28.269Z,8484.00
2017-10-18T08:19:28.260Z,9784.00
2017-10-18T08:20:28.252Z,7360.00
2017-10-18T08:21:28.247Z,7624.00
2017-10-18T08:22:28.245Z,8460.00
2017-10-18T08:23:28.232Z,7188.00
2017-10-18T08:24:28.228Z,9340.00
2017-10-18T08:25:28.227Z,7288.00
2017-10-18T08:26:28.211Z,8856.00
2017-10-18T08:27:28.208Z,9012.00
2017-10-18T08:28:28.199Z,8672.00
2017-10-18T08:29:28.195Z,9492.00
2017-10-18T08:30:28.185Z,8184.00
2017-10-18T08:31:28.180Z,9124.00
2017-10-18T08:32:28.176Z,9008.00
2017-10-18T08:33:28.172Z,10208.00
2017-10-18T08:34:28.166Z,10528.00
2017-10-18T08:35:28.154Z,9884.00
2017-10-18T08:36:28.146Z,9316.00
2017-10-18T08:37:28.142Z,8876.00
2017-10-18T08:38:28.135Z,9200.00
2017-10-18T08:39:28.129Z,11152.00
2017-10-18T08:40:28.123Z,10720.00
2017-10-18T08:41:28.116Z,12092.00
2017-10-18T08:42:28.107Z,11192.00
2017-10-18T08:43:28.100Z,12228.00
2017-10-18T08:44:28.095Z,13288.00
2017-10-18T08:45:28.095Z,13980.00
2017-10-18T08:46:28.080Z,13124.00
2017-10-18T08:47:28.081Z,13240.00
2017-10-18T08:48:28.074Z,11616.00
2017-10-18T08:49:28.064Z,12452.00
2017-10-18T08:50:28.064Z,13536.00
2017-10-18T08:51:28.050Z,13564.00
2017-10-18T08:52:28.045Z,12040.00
2017-10-18T08:53:28.041Z,12908.00
2017-10-18T08:54:28.039Z,11124.00
2017-10-18T08:55:28.032Z,12180.00
2017-10-18T08:56:28.043Z,13972.00
2017-10-18T08:57:28.020Z,12536.00
2017-10-18T08:58:28.015Z,13324.00
2017-10-18T08:59:28.004Z,13368.00
2017-10-18T09:00:27.996Z,13060.00
2017-10-18T09:01:27.990Z,11844.00
2017-10-18T09:02:27.983Z,11088.00
2017-10-18T09:03:27.980Z,13904.00
2017-10-18T09:04:27.976Z,14348.00
2017-10-18T09:05:27.970Z,12808.00
2017-10-18T09:06:27.959Z,17344.00
2017-10-18T09:07:27.959Z,21824.00
2017-10-18T09:08:27.948Z,15788.00
2017-10-18T09:09:27.947Z,12876.00
2017-10-18T09:10:27.937Z,14904.00
2017-10-18T09:11:27.931Z,20224.00
2017-10-18T09:12:27.929Z,15176.00
2017-10-18T09:13:27.920Z,15944.00
2017-10-18T09:14:27.914Z,13828.00
2017-10-18T09:15:27.915Z,14972.00
2017-10-18T09:16:27.904Z,15020.00
2017-10-18T09:17:27.900Z,12912.00
2017-10-18T09:18:27.892Z,12992.00
2017-10-18T09:19:27.889Z,13628.00
2017-10-18T09:20:27.882Z,16364.00
2017-10-18T09:21:27.876Z,16392.00
2017-10-18T09:22:27.870Z,12496.00
2017-10-18T09:23:27.866Z,15156.00
2017-10-18T09:24:27.860Z,18080.00
2017-10-18T09:25:27.857Z,15848.00
2017-10-18T09:26:27.850Z,14216.00
2017-10-18T09:27:27.848Z,10640.00
2017-10-18T09:28:27.840Z,11416.00
2017-10-18T09:29:27.841Z,13084.00
2017-10-18T09:30:27.832Z,13616.00
2017-10-18T09:31:27.823Z,11448.00
2017-10-18T09:32:27.819Z,13268.00
2017-10-18T09:33:27.819Z,12716.00
2017-10-18T09:34:27.810Z,11188.00
2017-10-18T09:35:27.805Z,9852.00
2017-10-18T09:36:27.807Z,10888.00
2017-10-18T09:37:27.816Z,10072.00
2017-10-18T09:38:27.808Z,9456.00
2017-10-18T09:39:27.786Z,10192.00
2017-10-18T09:40:27.777Z,11236.00
2017-10-18T09:41:27.774Z,12016.00
2017-10-18T09:42:27.778Z,11736.00
2017-10-18T09:43:27.770Z,8796.00
2017-10-18T09:44:27.760Z,9064.00
2017-10-18T09:45:27.758Z,9384.00
2017-10-18T09:46:27.747Z,11632.00
2017-10-18T09:47:27.745Z,16696.00
2017-10-18T09:48:27.736Z,17760.00
2017-10-18T09:49:27.734Z,15784.00
2017-10-18T09:50:27.726Z,16896.00
2017-10-18T09:51:27.722Z,15536.00
2017-10-18T09:52:27.723Z,17024.00
2017-10-18T09:53:27.713Z,21312.00
2017-10-18T09:54:27.709Z,23712.00
2017-10-18T09:55:27.704Z,25472.00
2017-10-18T09:56:27.726Z,22880.00
2017-10-18T09:57:27.706Z,18656.00
2017-10-18T09:58:27.699Z,20576.00
2017-10-18T09:59:27.686Z,26752.00
2017-10-18T10:00:27.713Z,55904.00
2017-10-18T10:01:27.682Z,64352.00
2017-10-18T10:02:27.672Z,26944.00
2017-10-18T10:03:27.671Z,18080.00
2017-10-18T10:04:27.664Z,18336.00
2017-10-18T10:05:27.667Z,23904.00
2017-10-18T10:06:27.660Z,36608.00
2017-10-18T10:07:27.660Z,52576.00
2017-10-18T10:08:27.657Z,47232.00
2017-10-18T10:09:27.646Z,55840.00
2017-10-18T10:10:27.641Z,56704.00
2017-10-18T10:11:27.638Z,32832.00
2017-10-18T10:12:27.635Z,25824.00
2017-10-18T10:13:27.633Z,35552.00
2017-10-18T10:14:27.633Z,40672.00
2017-10-18T10:15:27.627Z,34336.00
2017-10-18T10:16:27.625Z,21056.00
2017-10-18T10:17:27.622Z,24000.00
2017-10-18T10:18:27.621Z,38976.00
2017-10-18T10:19:27.617Z,28704.00
2017-10-18T10:20:27.617Z,31264.00
2017-10-18T10:21:27.617Z,58112.00
2017-10-18T10:22:27.614Z,64416.00
2017-10-18T10:23:27.613Z,59200.00
2017-10-18T10:24:27.607Z,65696.00
2017-10-18T10:25:27.610Z,67040.00
2017-10-18T10:26:27.606Z,68576.00
2017-10-18T10:27:27.606Z,69120.00
2017-10-18T10:28:27.606Z,69792.00
2017-10-18T10:29:27.605Z,69984.00
2017-10-18T10:30:27.606Z,71808.00
2017-10-18T10:31:27.612Z,71200.00
2017-10-18T10:32:27.613Z,71904.00
2017-10-18T10:33:27.606Z,72608.00
2017-10-18T10:34:27.603Z,73728.00
2017-10-18T10:35:27.607Z,75904.00
2017-10-18T10:36:27.606Z,75776.00
2017-10-18T10:37:27.609Z,75808.00
2017-10-18T10:38:27.610Z,75392.00
2017-10-18T10:39:27.612Z,74464.00
2017-10-18T10:40:27.613Z,76384.00
2017-10-18T10:41:27.616Z,76736.00
2017-10-18T10:42:27.617Z,76928.00
2017-10-18T10:43:27.618Z,75424.00
2017-10-18T10:44:27.624Z,75616.00
2017-10-18T10:45:27.632Z,77568.00
2017-10-18T10:46:27.629Z,79712.00
2017-10-18T10:47:27.630Z,81632.00
2017-10-18T10:48:27.633Z,80928.00
2017-10-18T10:49:27.637Z,78976.00
2017-10-18T10:50:27.640Z,78048.00
2017-10-18T10:51:27.642Z,76256.00
2017-10-18T10:52:27.648Z,76576.00
2017-10-18T10:53:27.650Z,74752.00
2017-10-18T10:54:27.654Z,74912.00
2017-10-18T10:55:27.663Z,73792.00
2017-10-18T10:56:27.661Z,66528.00
2017-10-18T10:57:27.668Z,61472.00
2017-10-18T10:58:27.671Z,58272.00
2017-10-18T10:59:27.674Z,53600.00
2017-10-18T11:00:27.680Z,47776.00
2017-10-18T11:01:27.698Z,43680.00
2017-10-18T11:02:27.689Z,41696.00
2017-10-18T11:03:27.692Z,41664.00
2017-10-18T11:04:27.697Z,41920.00
2017-10-18T11:05:27.705Z,43872.00
2017-10-18T11:06:27.709Z,48320.00
2017-10-18T11:07:27.715Z,50528.00
2017-10-18T11:08:27.722Z,53120.00
2017-10-18T11:09:27.733Z,60704.00
2017-10-18T11:10:27.730Z,70176.00
2017-10-18T11:11:27.737Z,74688.00
2017-10-18T11:12:27.751Z,76384.00
2017-10-18T11:13:27.750Z,85952.00
2017-10-18T11:14:27.758Z,84800.00
2017-10-18T11:15:27.761Z,74848.00
2017-10-18T11:16:27.770Z,73120.00
2017-10-18T11:17:27.774Z,77056.00
2017-10-18T11:18:27.776Z,80320.00
2017-10-18T11:19:27.783Z,84064.00
2017-10-18T11:20:27.791Z,79840.00
2017-10-18T11:21:27.795Z,66400.00
2017-10-18T11:22:27.801Z,68640.00
2017-10-18T11:23:27.809Z,75968.00
2017-10-18T11:24:27.814Z,69184.00
2017-10-18T11:25:27.831Z,57184.00
2017-10-18T11:26:27.836Z,57632.00
2017-10-18T11:27:27.841Z,61472.00
2017-10-18T11:28:27.854Z,59776.00
2017-10-18T11:29:27.850Z,53344.00
2017-10-18T11:30:27.864Z,54624.00
2017-10-18T11:31:27.882Z,56384.00
2017-10-18T11:32:27.868Z,54784.00
2017-10-18T11:33:27.876Z,57504.00
2017-10-18T11:34:27.885Z,61472.00
2017-10-18T11:35:27.888Z,65888.00
2017-10-18T11:36:27.898Z,69024.00
2017-10-18T11:37:27.907Z,65952.00
2017-10-18T11:38:27.908Z,69600.00
2017-10-18T11:39:27.921Z,70688.00
2017-10-18T11:40:27.924Z,68384.00
2017-10-18T11:41:27.930Z,70592.00
2017-10-18T11:42:27.936Z,65504.00
2017-10-18T11:43:27.943Z,62144.00
2017-10-18T11:44:27.950Z,65728.00
2017-10-18T11:45:27.959Z,64256.00
2017-10-18T11:46:27.965Z,73440.00
2017-10-18T11:47:27.970Z,100736.00
2017-10-18T11:48:27.979Z,110688.00
2017-10-18T11:49:27.985Z,105056.00
2017-10-18T11:50:27.992Z,83264.00
2017-10-18T11:51:27.999Z,64064.00
2017-10-18T11:52:28.006Z,46976.00
2017-10-18T11:53:28.014Z,37344.00
2017-10-18T11:54:28.023Z,32448.00
2017-10-18T11:55:28.043Z,28256.00
2017-10-18T11:56:28.038Z,24992.00
2017-10-18T11:57:28.040Z,23328.00
2017-10-18T11:58:28.052Z,22496.00
2017-10-18T11:59:28.057Z,22080.00
2017-10-18T12:00:28.066Z,21536.00
2017-10-18T12:01:28.073Z,21152.00
2017-10-18T12:02:28.075Z,20896.00
2017-10-18T12:03:28.082Z,20544.00
2017-10-18T12:04:28.090Z,20288.00
2017-10-18T12:05:28.128Z,20288.00
2017-10-18T12:06:28.102Z,20064.00
2017-10-18T12:07:28.110Z,19744.00
2017-10-18T12:08:28.116Z,19616.00
2017-10-18T12:09:28.124Z,19232.00
2017-10-18T12:10:28.129Z,19008.00
2017-10-18T12:11:28.143Z,18944.00
2017-10-18T12:12:28.144Z,18784.00
2017-10-18T12:13:28.151Z,18912.00
2017-10-18T12:14:28.161Z,19104.00
2017-10-18T12:15:28.177Z,19104.00
2017-10-18T12:16:28.170Z,19136.00
2017-10-18T12:17:28.221Z,19296.00
2017-10-18T12:18:28.202Z,19360.00
2017-10-18T12:19:28.209Z,18944.00
2017-10-18T12:20:28.224Z,19008.00
2017-10-18T12:21:28.206Z,19072.00
2017-10-18T12:22:28.209Z,18848.00
2017-10-18T12:23:28.217Z,18400.00
2017-10-18T12:24:28.221Z,18240.00
2017-10-18T12:25:28.225Z,18208.00
2017-10-18T12:26:28.231Z,18208.00
2017-10-18T12:27:28.238Z,18144.00
2017-10-18T12:28:28.243Z,17984.00
2017-10-18T12:29:28.249Z,17696.00
2017-10-18T12:30:28.256Z,17792.00
2017-10-18T12:31:28.260Z,17952.00